Time;durP1;ratioP1;P1;durP2;ratioP2;P2;SDS_P1;SDS_P2;PMS_P1;PMS_P2;Temp;Humidity;BMP_temperature;BMP_pressure;BME280_temperature;BME280_humidity;BME280_pressure;Samples;Min_cycle;Max_cycle;Signal;HPM_P1;HPM_P2
2024/03/10 00:50:40;;;;;;;0.20;0.20;;;;;;;13.01;90.79;75206.53;5014334;28;20089;-88
2024/03/10 01:01:48;;;;;;;0.20;0.20;;;;;;;13.21;88.86;75223.69;5172243;23;20057;-87
2024/03/10 01:04:43;;;;;;;0.20;0.20;;;;;;;13.06;88.13;75206.97;4981153;28;20035;-88
2024/03/10 01:10:44;;;;;;;0.20;0.20;;;;;;;13.15;89.53;75224.84;4961837;29;20075;-90
2024/03/10 01:23:30;;;;;;;0.20;0.20;;;;;;;12.44;92.40;75138.91;4958316;29;20075;-88
2024/03/10 01:26:17;;;;;;;0.20;0.20;;;;;;;12.46;92.03;75144.66;4957781;29;20036;-89
2024/03/10 01:28:48;;;;;;;0.20;0.20;;;;;;;12.53;91.27;75150.28;4940426;29;20040;-89
2024/03/10 01:31:37;;;;;;;0.20;0.20;;;;;;;12.92;91.06;75195.16;4941612;29;20039;-89
2024/03/10 01:34:20;;;;;;;0.20;0.20;;;;;;;12.81;90.68;75179.81;4942609;29;20068;-88
2024/03/10 01:36:56;;;;;;;0.20;0.20;;;;;;;12.80;89.74;75181.41;4959061;29;20633;-87
2024/03/10 01:39:25;;;;;;;0.20;0.20;;;;;;;12.74;90.69;75177.00;4997274;28;20090;-87
2024/03/10 01:41:57;;;;;;;0.20;0.20;;;;;;;12.88;90.93;75190.97;4997259;28;20038;-88
2024/03/10 01:44:32;;;;;;;0.20;0.20;;;;;;;12.82;90.14;75181.59;4991467;28;20058;-88
2024/03/10 01:47:04;;;;;;;0.20;0.20;;;;;;;12.92;89.34;75189.59;4996657;28;20022;-88
2024/03/10 01:49:34;;;;;;;0.20;0.20;;;;;;;13.00;89.00;75199.78;4996038;28;20050;-88
2024/03/10 02:02:52;;;;;;;0.20;0.20;;;;;;;13.11;87.45;75217.91;5004696;28;20058;-89
2024/03/10 02:16:04;;;;;;;0.20;0.20;;;;;;;13.05;83.57;75205.75;4980528;28;20030;-89
2024/03/10 02:18:59;;;;;;;0.20;0.20;;;;;;;13.40;83.13;75252.03;4948060;29;20023;-89
2024/03/10 02:21:53;;;;;;;0.20;0.20;;;;;;;13.32;82.94;75236.91;4944500;29;20027;-89
2024/03/10 02:48:13;;;;;;;0.20;0.20;;;;;;;13.01;81.90;75203.75;4981154;28;20034;-89
2024/03/10 02:50:52;;;;;;;0.20;0.20;;;;;;;12.87;82.77;75189.75;4976194;28;20023;-89
2024/03/10 02:53:38;;;;;;;0.20;0.20;;;;;;;12.88;82.94;75190.97;4975337;29;20091;-88
2024/03/10 02:56:04;;;;;;;0.20;0.20;;;;;;;12.90;83.11;75192.75;4960953;28;20407;-87
2024/03/10 02:58:49;;;;;;;0.20;0.20;;;;;;;13.22;82.27;75231.09;4976134;28;20026;-88
2024/03/10 03:05:03;;;;;;;0.20;0.20;;;;;;;13.01;82.09;75203.75;5536254;22;20090;-88
2024/03/10 03:07:29;;;;;;;0.20;0.20;;;;;;;12.98;83.09;75202.31;4972330;29;20035;-88
2024/03/10 03:13:26;;;;;;;0.22;0.22;;;;;;;13.22;79.23;75231.09;4961930;28;20115;-89
2024/03/10 03:16:24;;;;;;;0.20;0.20;;;;;;;13.38;79.38;75243.47;4979849;29;20017;-86
2024/03/10 03:19:13;;;;;;;0.20;0.20;;;;;;;13.39;79.38;75250.22;4979605;29;20035;-88
2024/03/10 03:22:10;;;;;;;0.20;0.20;;;;;;;13.32;79.51;75239.69;4960632;29;20055;-88
2024/03/10 03:24:42;;;;;;;0.20;0.20;;;;;;;12.99;79.93;75201.34;4960915;29;20043;-87
2024/03/10 03:27:16;;;;;;;0.20;0.20;;;;;;;12.91;79.50;75188.41;4944427;29;20074;-88
2024/03/10 03:30:21;;;;;;;0.20;0.20;;;;;;;13.09;80.36;75218.25;4953775;28;20031;-88
2024/03/10 03:36:32;;;;;;;0.20;0.20;;;;;;;13.15;80.87;75222.06;4960213;28;20076;-88
2024/03/10 03:45:13;;;;;;;0.20;0.20;;;;;;;12.96;79.72;75195.00;5915844;23;20058;-88
2024/03/10 03:48:07;;;;;;;0.20;0.20;;;;;;;13.06;79.92;75211.91;4997007;28;20038;-88
2024/03/10 04:04:26;;;;;;;0.20;0.20;;;;;;;13.14;78.79;75223.66;4983752;28;20069;-89
2024/03/10 04:07:55;;;;;;;0.20;0.20;;;;;;;13.30;77.02;75235.09;4934915;29;20065;-89
2024/03/10 04:11:01;;;;;;;0.20;0.20;;;;;;;13.45;77.22;75258.00;4965014;28;20616;-89
2024/03/10 04:22:21;;;;;;;0.20;0.20;;;;;;;13.54;74.77;75259.84;5637601;23;20117;-87
2024/03/10 04:29:08;;;;;;;0.20;0.20;;;;;;;13.72;73.34;75289.13;5002436;28;20041;-88
2024/03/10 04:35:05;;;;;;;0.20;0.20;;;;;;;13.71;72.35;75285.75;5001493;28;20030;-88
2024/03/10 04:41:28;;;;;;;0.20;0.20;;;;;;;14.21;72.06;75346.63;4984456;28;20069;-87
2024/03/10 04:44:33;;;;;;;0.20;0.20;;;;;;;14.05;72.81;75325.88;4900424;29;20083;-88
2024/03/10 04:50:48;;;;;;;0.20;0.20;;;;;;;13.99;71.79;75318.69;4968889;23;20050;-90
2024/03/10 05:00:21;;;;;;;0.20;0.20;;;;;;;13.79;72.00;75291.94;5021405;28;20117;-89
2024/03/10 05:02:48;;;;;;;0.20;0.20;;;;;;;13.55;73.76;75269.97;4984680;28;20035;-87
2024/03/10 05:05:17;;;;;;;0.20;0.20;;;;;;;13.66;72.92;75279.19;5015297;28;20034;-88
2024/03/10 05:08:08;;;;;;;0.20;0.20;;;;;;;13.72;70.87;75283.56;4983690;28;20018;-89
2024/03/10 05:10:55;;;;;;;0.20;0.20;;;;;;;13.94;70.10;75318.25;4998871;28;20038;-89
2024/03/10 05:13:21;;;;;;;0.20;0.20;;;;;;;13.76;70.93;75293.94;4974869;28;20069;-89
2024/03/10 05:19:51;;;;;;;0.20;0.20;;;;;;;13.80;70.45;75296.53;5021674;28;20053;-88
2024/03/10 05:26:07;;;;;;;0.20;0.20;;;;;;;13.82;69.49;75301.13;4960522;29;20053;-89
2024/03/10 05:31:58;;;;;;;0.20;0.20;;;;;;;13.34;74.58;75242.06;4959482;29;20042;-88
2024/03/10 05:34:56;;;;;;;0.20;0.20;;;;;;;13.76;71.69;75288.38;4927955;29;20032;-88
2024/03/10 05:38:02;;;;;;;0.20;0.20;;;;;;;13.52;73.57;75266.38;4961692;29;20031;-89
2024/03/10 05:40:32;;;;;;;0.20;0.20;;;;;;;13.36;75.01;75247.81;4942354;29;20050;-90
2024/03/10 05:43:32;;;;;;;0.20;0.20;;;;;;;13.07;76.18;75205.38;4903305;29;20053;-90
2024/03/10 05:47:11;;;;;;;0.20;0.20;;;;;;;13.63;72.17;75274.00;4926459;29;20028;-90
2024/03/10 05:54:00;;;;;;;0.20;0.20;;;;;;;13.44;75.72;75256.81;4859688;29;20080;-89
2024/03/10 06:00:42;;;;;;;0.20;0.20;;;;;;;13.88;69.50;75303.34;4904923;29;20043;-89
2024/03/10 06:03:40;;;;;;;0.20;0.20;;;;;;;13.84;69.66;75301.31;4920274;29;20040;-89
2024/03/10 06:09:53;;;;;;;0.28;0.28;;;;;;;13.80;70.03;75293.16;4922901;29;20044;-89
2024/03/10 06:33:51;;;;;;;0.20;0.20;;;;;;;14.88;58.98;75420.75;5873217;23;20062;-88
2024/03/10 06:37:13;;;;;;;0.20;0.20;;;;;;;15.28;57.92;75473.03;4998809;28;20035;-87
2024/03/10 06:40:26;;;;;;;0.20;0.20;;;;;;;15.28;58.23;75466.88;4995898;28;20102;-88
2024/03/10 06:43:44;;;;;;;0.20;0.20;;;;;;;15.06;57.57;75447.28;4993218;28;20039;-87
2024/03/10 06:59:58;;;;;;;0.20;0.20;;;;;;;15.63;53.79;75514.41;1395143;23;20474;-88
2024/03/10 07:05:39;;;;;;;0.20;0.20;;;;;;;15.61;53.47;75509.22;5664112;23;20042;-88
2024/03/10 07:08:17;;;;;;;0.20;0.20;;;;;;;15.77;54.09;75530.03;4997850;28;20042;-90
2024/03/10 07:14:08;;;;;;;0.20;0.20;;;;;;;15.58;54.15;75499.44;4997456;28;20049;-89
2024/03/10 07:38:40;;;;;;;0.20;0.20;;;;;;;15.93;51.23;75538.66;5130535;27;20422;-87
2024/03/10 07:41:32;;;;;;;0.20;0.20;;;;;;;15.89;50.49;75541.63;5132443;28;20036;-87
2024/03/10 07:44:15;;;;;;;0.20;0.20;;;;;;;15.96;50.89;75547.22;5131598;28;20038;-88
2024/03/10 07:46:41;;;;;;;0.20;0.20;;;;;;;15.86;52.51;75538.59;5112260;28;20563;-88
2024/03/10 07:49:10;;;;;;;0.20;0.20;;;;;;;15.56;53.86;75503.22;5112112;28;20042;-88
2024/03/10 07:51:58;;;;;;;0.20;0.20;;;;;;;16.13;52.04;75567.00;5089704;28;20072;-87
2024/03/10 07:54:52;;;;;;;0.20;0.20;;;;;;;15.98;51.63;75550.22;5108069;28;20011;-87
2024/03/10 07:57:23;;;;;;;0.20;0.20;;;;;;;16.23;49.88;75582.38;5115050;28;20028;-87
2024/03/10 07:59:52;;;;;;;0.20;0.20;;;;;;;16.44;47.69;75601.38;5108344;28;20028;-88
2024/03/10 08:02:20;;;;;;;0.20;0.20;;;;;;;16.65;46.92;75625.38;5130719;28;20031;-88
2024/03/10 08:04:52;;;;;;;0.20;0.20;;;;;;;16.61;47.13;75620.56;5133808;28;20045;-87
2024/03/10 08:08:05;;;;;;;0.20;0.20;;;;;;;16.64;47.67;75624.78;5121951;28;20062;-89
2024/03/10 08:10:56;;;;;;;0.20;0.20;;;;;;;16.47;47.84;75610.56;5092208;28;20047;-88
2024/03/10 08:13:31;;;;;;;0.20;0.20;;;;;;;16.76;47.89;75644.78;5060572;28;20037;-87
2024/03/10 08:16:35;;;;;;;0.20;0.20;;;;;;;16.95;46.35;75661.38;5093395;28;20031;-88
2024/03/10 08:19:03;;;;;;;0.20;0.20;;;;;;;16.66;46.09;75626.56;5072603;28;20044;-87
2024/03/10 08:21:30;;;;;;;0.20;0.20;;;;;;;16.74;45.91;75636.78;5089058;28;20059;-85
2024/03/10 08:23:57;;;;;;;0.20;0.20;;;;;;;16.75;46.72;75640.78;5088805;28;20037;-86
2024/03/10 08:26:24;;;;;;;0.20;0.20;;;;;;;16.72;47.37;75640.00;5086059;28;20502;-86
2024/03/10 08:28:57;;;;;;;0.20;0.20;;;;;;;16.72;45.42;75640.00;5082171;28;20569;-87
2024/03/10 08:31:25;;;;;;;0.20;0.20;;;;;;;16.79;45.09;75649.97;5087041;28;20054;-86
2024/03/10 08:33:52;;;;;;;0.20;0.20;;;;;;;16.85;45.67;75654.38;5087546;28;20044;-86
2024/03/10 08:36:19;;;;;;;0.20;0.20;;;;;;;17.01;43.48;75670.78;5089037;28;20078;-87
2024/03/10 08:38:46;;;;;;;0.20;0.20;;;;;;;17.06;44.93;75681.78;5105656;28;20062;-86
2024/03/10 08:41:13;;;;;;;0.20;0.20;;;;;;;16.83;44.61;75647.00;5103827;28;20032;-86
2024/03/10 08:43:39;;;;;;;0.20;0.20;;;;;;;16.69;44.97;75633.56;5089976;28;20026;-86
2024/03/10 08:46:11;;;;;;;0.20;0.20;;;;;;;17.09;44.25;75676.97;5090047;28;20651;-86
2024/03/10 08:48:41;;;;;;;0.20;0.20;;;;;;;16.96;45.21;75662.00;5096474;28;20027;-86
2024/03/10 08:51:10;;;;;;;0.20;0.20;;;;;;;16.85;45.87;75651.59;5059778;28;20016;-87
2024/03/10 08:54:25;;;;;;;0.20;0.20;;;;;;;16.78;46.60;75646.59;5045643;28;20021;-88
2024/03/10 08:57:18;;;;;;;0.20;0.20;;;;;;;17.15;44.61;75684.16;5062560;28;20037;-86
2024/03/10 08:59:54;;;;;;;0.20;0.20;;;;;;;16.99;44.79;75666.19;5039668;28;20038;-87
2024/03/10 09:02:41;;;;;;;0.20;0.20;;;;;;;17.09;44.88;75680.38;5047765;28;20037;-87
2024/03/10 09:05:33;;;;;;;0.20;0.20;;;;;;;16.97;45.19;75671.56;5073210;28;20028;-87
2024/03/10 09:08:01;;;;;;;0.20;0.20;;;;;;;17.30;44.75;75704.97;5094921;28;20047;-86
2024/03/10 09:11:06;;;;;;;0.20;0.20;;;;;;;17.07;44.27;75677.38;5092455;28;20037;-87
2024/03/10 09:13:33;;;;;;;0.20;0.20;;;;;;;17.01;45.08;75668.00;5089298;28;20021;-86
2024/03/10 09:16:01;;;;;;;0.20;0.20;;;;;;;17.03;44.33;75678.75;5073594;28;20025;-86
2024/03/10 09:18:34;;;;;;;0.20;0.20;;;;;;;16.92;44.45;75659.97;5057993;28;20063;-86
2024/03/10 09:21:17;;;;;;;0.20;0.20;;;;;;;17.10;44.56;75678.16;5075012;28;20012;-87
2024/03/10 09:24:14;;;;;;;0.20;0.20;;;;;;;16.89;45.25;75656.38;5079660;28;20105;-85
2024/03/10 09:26:44;;;;;;;0.20;0.20;;;;;;;17.00;44.84;75669.59;5083764;28;20096;-86
2024/03/10 09:30:05;;;;;;;0.20;0.20;;;;;;;17.39;45.08;75715.19;5119453;28;20092;-87
2024/03/10 09:32:56;;;;;;;0.20;0.20;;;;;;;17.26;45.24;75700.78;5077786;28;20043;-87
2024/03/10 09:35:55;;;;;;;0.20;0.20;;;;;;;17.25;46.61;75696.16;5071181;28;20037;-87
2024/03/10 09:38:33;;;;;;;0.20;0.20;;;;;;;17.03;46.25;75673.16;5078767;28;20097;-87
2024/03/10 09:41:26;;;;;;;0.20;0.20;;;;;;;17.40;45.88;75716.38;5045440;28;20032;-87
2024/03/10 09:44:19;;;;;;;0.20;0.20;;;;;;;17.24;46.28;75698.38;5074989;28;20029;-87
2024/03/10 09:47:06;;;;;;;0.20;0.20;;;;;;;17.10;46.90;75675.38;5068765;28;20072;-88
2024/03/10 09:50:33;;;;;;;0.20;0.20;;;;;;;17.43;45.83;75719.97;5062144;28;20029;-87
2024/03/10 09:53:42;;;;;;;0.20;0.20;;;;;;;17.40;46.60;75716.97;5079913;28;20013;-88
2024/03/10 09:56:12;;;;;;;0.20;0.20;;;;;;;17.54;46.15;75733.19;5062746;28;20043;-88
2024/03/10 09:59:25;;;;;;;0.20;0.20;;;;;;;17.28;47.11;75702.56;5052983;28;20038;-88
2024/03/10 10:02:51;;;;;;;0.20;0.20;;;;;;;17.02;47.14;75677.56;5057583;28;20022;-88
2024/03/10 10:10:58;;;;;;;0.20;0.20;;;;;;;16.71;48.75;75635.97;5096274;22;20057;-86
2024/03/10 10:13:31;;;;;;;0.20;0.20;;;;;;;16.87;48.63;75654.56;5054663;28;20096;-85
2024/03/10 10:16:08;;;;;;;0.20;0.20;;;;;;;16.84;48.92;75650.38;5071650;28;20040;-86
2024/03/10 10:18:40;;;;;;;0.20;0.20;;;;;;;16.83;49.35;75647.00;5052632;28;20036;-86
2024/03/10 10:21:07;;;;;;;0.20;0.20;;;;;;;16.70;49.56;75631.97;5017316;28;20041;-87
2024/03/10 10:23:56;;;;;;;0.20;0.20;;;;;;;16.65;49.66;75631.56;5021233;28;20144;-87
2024/03/10 10:26:22;;;;;;;0.20;0.20;;;;;;;16.71;49.66;75638.78;5034423;28;20029;-86
2024/03/10 10:29:06;;;;;;;0.20;0.20;;;;;;;16.61;49.93;75626.75;5038182;28;20035;-86
2024/03/10 10:31:33;;;;;;;0.20;0.20;;;;;;;16.70;49.73;75634.16;5042304;28;20025;-85
2024/03/10 10:34:13;;;;;;;0.20;0.20;;;;;;;16.65;49.96;75628.16;5037882;28;20021;-86
2024/03/10 10:37:58;;;;;;;0.20;0.20;;;;;;;16.91;49.72;75653.78;5056685;28;20042;-87
2024/03/10 10:41:07;;;;;;;0.20;0.20;;;;;;;16.90;50.54;75660.38;5071261;28;20021;-88
2024/03/10 10:44:08;;;;;;;0.20;0.20;;;;;;;16.72;50.72;75639.38;5064879;28;20024;-87
2024/03/10 10:50:31;;;;;;;0.20;0.20;;;;;;;16.93;51.62;75661.78;5018014;28;20037;-86
2024/03/10 10:53:25;;;;;;;0.20;0.20;;;;;;;16.77;52.59;75637.59;5048118;28;20055;-86
2024/03/10 10:56:45;;;;;;;0.20;0.20;;;;;;;16.56;53.98;75612.38;5056501;28;20040;-87
2024/03/10 11:00:09;;;;;;;0.20;0.20;;;;;;;16.76;55.38;75638.59;5056550;28;20034;-87
2024/03/10 11:06:41;;;;;;;0.20;0.20;;;;;;;16.49;56.43;75609.56;5056658;28;20054;-87
2024/03/10 11:09:41;;;;;;;0.20;0.20;;;;;;;16.45;55.88;75607.56;5028146;28;20044;-87
2024/03/10 11:12:47;;;;;;;0.20;0.20;;;;;;;16.67;56.51;75631.19;5011691;28;20025;-86
2024/03/10 11:16:19;;;;;;;0.20;0.20;;;;;;;16.78;57.00;75643.78;5053993;28;20030;-87
2024/03/10 11:18:45;;;;;;;0.20;0.20;;;;;;;16.61;57.75;75623.34;5027967;28;20059;-85
2024/03/10 11:21:28;;;;;;;0.20;0.20;;;;;;;16.79;57.23;75644.38;5052750;28;20037;-85
2024/03/10 11:24:08;;;;;;;0.20;0.20;;;;;;;16.86;57.08;75655.56;5037742;28;20026;-86
2024/03/10 11:26:51;;;;;;;0.20;0.20;;;;;;;16.80;56.59;75646.19;5029459;28;20024;-87
2024/03/10 11:29:43;;;;;;;0.20;0.20;;;;;;;16.93;57.07;75658.97;5050593;28;20101;-87
2024/03/10 11:32:53;;;;;;;0.20;0.20;;;;;;;16.96;57.18;75667.56;5052028;28;20017;-87
2024/03/10 12:28:49;;;;;;;0.20;0.20;;;;;;;16.60;67.02;75622.75;4992618;28;20088;-89
2024/03/10 12:31:28;;;;;;;0.20;0.20;;;;;;;16.77;67.68;75643.16;4977404;28;20043;-87
2024/03/10 12:37:23;;;;;;;0.20;0.20;;;;;;;16.68;69.05;75626.78;4961619;29;20071;-87
2024/03/10 12:40:04;;;;;;;0.20;0.20;;;;;;;16.40;70.17;75598.78;4960549;28;20042;-89
2024/03/10 12:42:32;;;;;;;0.20;0.20;;;;;;;16.33;71.13;75590.38;4979151;28;20054;-88
2024/03/10 12:46:04;;;;;;;0.20;0.20;;;;;;;16.55;71.80;75611.19;4973813;28;20072;-88
2024/03/10 12:51:19;;;;;;;0.20;0.20;;;;;;;16.52;71.30;75609.78;5279637;23;20059;-89
2024/03/10 12:54:16;;;;;;;0.20;0.20;;;;;;;16.67;72.31;75630.56;4974197;28;20143;-88
2024/03/10 12:56:44;;;;;;;0.20;0.20;;;;;;;16.43;72.44;75608.56;4946243;29;20043;-88
2024/03/10 12:59:34;;;;;;;0.20;0.20;;;;;;;16.72;71.23;75636.56;4943940;29;20022;-87
2024/03/10 13:02:07;;;;;;;0.20;0.20;;;;;;;16.53;71.66;75614.38;4976165;29;20024;-88
2024/03/10 13:05:06;;;;;;;0.20;0.20;;;;;;;16.32;73.60;75589.78;4954710;29;20067;-89
2024/03/10 13:08:01;;;;;;;0.20;0.20;;;;;;;16.39;76.10;75603.75;4978963;29;20055;-88
2024/03/10 13:10:43;;;;;;;0.20;0.20;;;;;;;16.27;78.50;75583.78;4964193;29;20035;-88
2024/03/10 13:14:00;;;;;;;0.20;0.20;;;;;;;15.93;80.36;75543.63;4959482;29;20016;-87
2024/03/10 13:16:36;;;;;;;0.20;0.20;;;;;;;16.08;81.62;75561.59;4959269;28;20032;-88
2024/03/10 13:19:06;;;;;;;0.20;0.20;;;;;;;15.87;79.82;75530.84;4957885;29;20071;-89
2024/03/10 13:22:18;;;;;;;0.20;0.20;;;;;;;16.17;80.73;75572.38;4945558;29;20051;-88
2024/03/10 13:25:11;;;;;;;0.20;0.20;;;;;;;15.93;82.22;75540.84;4960528;29;20040;-88
2024/03/10 13:28:33;;;;;;;0.20;0.20;;;;;;;16.14;81.96;75568.19;4947039;29;20042;-89
2024/03/10 13:31:32;;;;;;;0.20;0.20;;;;;;;15.78;83.13;75528.44;4961089;29;20042;-89
2024/03/10 13:36:52;;;;;;;0.20;0.20;;;;;;;15.94;85.48;75542.03;6001546;23;21278;-87
2024/03/10 13:40:05;;;;;;;0.20;0.20;;;;;;;15.86;86.94;75535.22;4922955;29;20028;-89
2024/03/10 13:51:16;;;;;;;0.20;0.20;;;;;;;15.63;86.64;75511.03;5711108;23;20035;-87
2024/03/10 14:10:44;;;;;;;0.20;0.20;;;;;;;15.97;84.36;75553.97;5114255;23;20054;-89
2024/03/10 14:13:31;;;;;;;0.20;0.20;;;;;;;15.77;84.78;75530.03;5431610;23;20070;-88
2024/03/10 14:16:02;;;;;;;0.20;0.20;;;;;;;15.69;85.29;75521.63;4974995;29;20055;-86
2024/03/10 14:18:36;;;;;;;0.20;0.20;;;;;;;15.68;84.67;75514.25;4976536;28;20073;-87
2024/03/10 14:21:39;;;;;;;0.20;0.20;;;;;;;15.61;84.73;75512.00;4950086;28;20027;-87
2024/03/10 14:24:24;;;;;;;0.20;0.20;;;;;;;15.89;85.24;75536.63;4923360;29;20036;-87
2024/03/10 14:27:16;;;;;;;0.20;0.20;;;;;;;15.84;86.45;75535.63;4927001;29;20116;-88
2024/03/10 14:30:28;;;;;;;0.20;0.20;;;;;;;15.84;86.46;75530.03;4943730;29;20095;-88
2024/03/10 14:33:26;;;;;;;0.20;0.20;;;;;;;15.58;87.10;75496.66;4923360;29;20071;-87
2024/03/10 14:35:55;;;;;;;0.20;0.20;;;;;;;15.77;86.97;75533.41;4941160;28;20044;-88
2024/03/10 14:39:15;;;;;;;0.20;0.20;;;;;;;15.78;87.42;75525.63;4893298;28;20108;-89
2024/03/10 14:41:46;;;;;;;0.20;0.20;;;;;;;15.51;87.67;75494.44;5328396;23;20047;-87
2024/03/10 14:44:16;;;;;;;0.20;0.20;;;;;;;15.63;87.97;75511.63;4958833;28;20027;-87
2024/03/10 14:46:43;;;;;;;0.20;0.20;;;;;;;15.48;88.53;75490.84;4977437;28;20027;-87
2024/03/10 14:49:15;;;;;;;0.20;0.20;;;;;;;15.57;89.17;75507.22;4975380;28;20032;-87
2024/03/10 14:58:56;;;;;;;0.20;0.20;;;;;;;15.65;89.33;75519.59;4939474;29;20051;-87
2024/03/10 15:05:48;;;;;;;0.20;0.20;;;;;;;15.70;89.10;75516.63;4921712;29;20040;-89
2024/03/10 15:08:16;;;;;;;0.20;0.20;;;;;;;15.46;89.17;75494.03;4904543;29;20056;-87
2024/03/10 15:11:05;;;;;;;0.20;0.20;;;;;;;15.63;89.81;75513.81;4937065;29;20024;-88
2024/03/10 15:13:37;;;;;;;0.20;0.20;;;;;;;15.64;90.23;75510.03;4931791;29;20063;-88
2024/03/10 15:16:07;;;;;;;0.20;0.20;;;;;;;15.38;90.73;75476.06;4939481;29;20028;-88
2024/03/10 15:18:57;;;;;;;0.20;0.20;;;;;;;15.69;91.46;75513.25;4931085;29;20032;-87
2024/03/10 15:21:29;;;;;;;0.20;0.20;;;;;;;15.66;92.41;75517.44;4906251;29;20031;-88
2024/03/10 15:24:26;;;;;;;0.20;0.20;;;;;;;15.63;93.33;75514.41;4920183;29;20104;-89
2024/03/10 15:30:53;;;;;;;0.20;0.20;;;;;;;15.49;95.18;75485.88;4939201;29;20063;-87
2024/03/10 15:33:26;;;;;;;0.20;0.20;;;;;;;15.38;95.73;75476.06;4920827;29;20021;-88
2024/03/10 15:35:55;;;;;;;0.20;0.20;;;;;;;15.21;96.21;75459.09;4878201;29;20047;-87
2024/03/10 15:38:25;;;;;;;0.20;0.20;;;;;;;15.49;95.95;75491.44;4889445;29;20052;-87
2024/03/10 15:40:56;;;;;;;0.20;0.20;;;;;;;15.18;96.10;75461.66;4921745;29;20028;-88
2024/03/10 15:43:31;;;;;;;0.20;0.20;;;;;;;15.53;96.45;75499.03;4925187;29;20053;-88
2024/03/10 15:46:01;;;;;;;0.20;0.20;;;;;;;15.24;95.90;75462.09;4938009;29;20036;-88
2024/03/10 15:55:21;;;;;;;0.20;0.20;;;;;;;15.49;95.49;75494.81;5122154;23;20067;-87
2024/03/10 15:57:54;;;;;;;0.20;0.20;;;;;;;15.30;95.94;75472.06;4961028;29;20031;-88
2024/03/10 16:12:22;;;;;;;0.20;0.20;;;;;;;15.36;98.00;75479.25;5598030;23;20055;-88
2024/03/10 16:22:42;;;;;;;0.20;0.20;;;;;;;15.06;98.45;75443.88;4982421;28;20055;-87
2024/03/10 16:29:12;;;;;;;0.20;0.20;;;;;;;15.07;96.79;75442.91;4962969;29;20038;-90
2024/03/10 16:34:37;;;;;;;0.20;0.20;;;;;;;15.21;96.43;75464.66;5331325;23;20058;-89
2024/03/10 16:38:02;;;;;;;0.20;0.20;;;;;;;15.31;97.12;75473.25;5000204;28;20069;-88
2024/03/10 16:44:01;;;;;;;0.20;0.20;;;;;;;14.92;98.05;75427.72;5000151;28;20505;-88
2024/03/10 16:46:52;;;;;;;0.20;0.20;;;;;;;14.91;98.09;75427.13;4965686;28;20045;-89
2024/03/10 16:50:27;;;;;;;0.20;0.20;;;;;;;14.93;98.72;75428.91;5000005;28;20074;-88
2024/03/10 16:56:28;;;;;;;0.20;0.20;;;;;;;14.92;99.04;75428.31;5001035;28;20021;-88
2024/03/10 16:59:42;;;;;;;0.20;0.20;;;;;;;15.10;99.08;75452.06;5000077;28;20098;-88
2024/03/10 17:02:10;;;;;;;0.20;0.20;;;;;;;14.79;100.00;75412.72;4983098;28;20094;-88
2024/03/10 17:05:05;;;;;;;0.20;0.20;;;;;;;14.95;99.64;75434.09;5000254;28;20015;-88
2024/03/10 17:11:08;;;;;;;0.20;0.20;;;;;;;14.76;100.00;75405.78;5000689;28;20033;-88
2024/03/10 17:17:59;;;;;;;0.20;0.20;;;;;;;14.92;100.00;75430.50;4999830;28;20062;-89
2024/03/10 17:21:01;;;;;;;0.20;0.20;;;;;;;15.01;100.00;75437.91;4998652;28;20030;-88
2024/03/10 17:23:36;;;;;;;0.20;0.20;;;;;;;14.78;100.00;75408.75;4998822;28;20038;-88
2024/03/10 17:26:13;;;;;;;;;;;;;;;14.93;100.00;75434.50;4982415;28;20031;-89
2024/03/10 17:28:46;;;;;;;0.20;0.20;;;;;;;14.72;100.00;75401.56;4998312;28;19945;-87
2024/03/10 17:31:26;;;;;;;0.20;0.20;;;;;;;14.79;100.00;75414.91;4981517;28;20010;-87
2024/03/10 17:34:05;;;;;;;0.20;0.20;;;;;;;14.74;100.00;75406.75;4964951;28;20118;-87
2024/03/10 17:36:39;;;;;;;0.20;0.20;;;;;;;14.72;100.00;75403.75;4997196;28;20034;-87
2024/03/10 17:39:10;;;;;;;0.20;0.20;;;;;;;14.73;100.00;75407.72;4997094;28;20025;-88
2024/03/10 17:41:45;;;;;;;0.20;0.20;;;;;;;14.46;100.00;75375.97;4996717;28;20011;-87
2024/03/10 17:44:17;;;;;;;0.20;0.20;;;;;;;14.41;100.00;75373.94;4973986;28;20102;-87
2024/03/10 17:47:33;;;;;;;0.20;0.20;;;;;;;14.62;100.00;75390.19;4988941;28;20106;-87
2024/03/10 17:50:14;;;;;;;0.20;0.20;;;;;;;14.51;100.00;75377.00;4996163;28;20121;-88
2024/03/10 17:52:57;;;;;;;0.20;0.20;;;;;;;14.27;100.00;75356.56;4995005;28;20055;-87
2024/03/10 17:58:32;;;;;;;0.20;0.20;;;;;;;14.13;100.00;75338.25;4997057;28;20015;-88
2024/03/10 18:01:08;;;;;;;0.20;0.20;;;;;;;14.06;100.00;75326.47;4996472;28;20037;-87
2024/03/10 18:04:02;;;;;;;0.20;0.20;;;;;;;14.19;100.00;75344.22;4996852;28;20035;-88
2024/03/10 18:10:55;;;;;;;0.20;0.20;;;;;;;14.36;100.00;75359.63;5263790;23;20043;-89
2024/03/10 18:18:00;;;;;;;0.20;0.20;;;;;;;14.40;100.00;75369.97;4943140;29;20038;-88
2024/03/10 18:33:48;;;;;;;0.20;0.20;;;;;;;14.57;100.00;75383.59;4977977;29;20054;-87
2024/03/10 18:36:49;;;;;;;0.20;0.20;;;;;;;14.58;100.00;75384.78;4934802;29;20040;-88
2024/03/10 18:39:52;;;;;;;0.20;0.20;;;;;;;14.60;100.00;75393.38;4938161;29;20036;-88
2024/03/10 18:42:19;;;;;;;0.20;0.20;;;;;;;14.35;100.00;75360.59;4921443;29;20036;-88
2024/03/10 18:44:46;;;;;;;0.20;0.20;;;;;;;14.48;100.00;75378.97;4921516;29;20032;-88
2024/03/10 18:47:48;;;;;;;0.20;0.20;;;;;;;14.66;100.00;75397.75;4937530;29;20064;-87
2024/03/10 18:50:17;;;;;;;0.20;0.20;;;;;;;14.55;100.00;75384.00;4914275;29;20036;-88
2024/03/10 18:52:57;;;;;;;0.20;0.20;;;;;;;14.55;100.00;75387.38;4922504;29;20200;-88
2024/03/10 18:56:08;;;;;;;0.20;0.20;;;;;;;14.61;100.00;75394.56;4922107;29;20040;-86
2024/03/10 18:59:25;;;;;;;0.20;0.20;;;;;;;14.65;100.00;75398.75;4939741;29;20044;-87
2024/03/10 19:01:59;;;;;;;0.20;0.20;;;;;;;14.51;100.00;75376.41;4924469;29;20044;-88
2024/03/10 19:04:33;;;;;;;0.20;0.20;;;;;;;14.34;100.00;75356.63;4939847;29;20031;-88
2024/03/10 19:07:08;;;;;;;0.20;0.20;;;;;;;14.38;100.00;75369.75;4940373;29;20044;-87
2024/03/10 19:09:34;;;;;;;0.20;0.20;;;;;;;14.39;100.00;75368.19;4955664;29;20286;-88
2024/03/10 19:12:04;;;;;;;0.20;0.20;;;;;;;14.44;100.00;75374.19;4954132;29;20039;-88
2024/03/10 19:15:09;;;;;;;0.20;0.20;;;;;;;14.72;100.00;75401.56;4970993;29;20132;-88
2024/03/10 19:17:53;;;;;;;0.20;0.20;;;;;;;14.42;100.00;75368.97;4974179;28;20039;-88
2024/03/10 19:21:05;;;;;;;0.20;0.20;;;;;;;14.62;100.00;75390.19;4975167;28;20121;-88
2024/03/10 19:23:36;;;;;;;0.20;0.20;;;;;;;14.38;100.00;75366.97;4975853;29;20038;-89
2024/03/10 19:26:32;;;;;;;0.20;0.20;;;;;;;14.34;100.00;75364.97;4975262;28;20039;-88
2024/03/10 19:29:25;;;;;;;0.20;0.20;;;;;;;14.52;100.00;75380.38;4956636;29;20054;-89
2024/03/10 19:31:54;;;;;;;0.20;0.20;;;;;;;14.23;100.00;75346.25;4941896;29;20050;-88
2024/03/10 19:34:33;;;;;;;0.20;0.20;;;;;;;14.37;100.00;75366.38;4925111;29;20020;-87
2024/03/10 19:37:11;;;;;;;0.20;0.20;;;;;;;14.36;100.00;75364.59;4939026;29;20047;-88
2024/03/10 19:46:19;;;;;;;0.20;0.20;;;;;;;14.11;100.00;75330.28;5329337;23;20120;-88
2024/03/10 19:52:59;;;;;;;0.20;0.20;;;;;;;14.42;100.00;75371.75;4980135;28;20039;-88
2024/03/10 19:58:53;;;;;;;0.20;0.20;;;;;;;14.14;100.00;75336.66;4976873;28;20553;-87
2024/03/10 20:01:52;;;;;;;0.20;0.20;;;;;;;14.36;100.00;75365.19;4958492;29;20027;-87
2024/03/10 20:11:19;;;;;;;0.20;0.20;;;;;;;14.24;100.00;75353.00;4979040;28;20043;-88
2024/03/10 20:14:27;;;;;;;0.20;0.20;;;;;;;14.29;100.00;75353.44;4929793;29;20039;-88
2024/03/10 20:17:18;;;;;;;0.20;0.20;;;;;;;14.18;100.00;75343.03;4961051;29;20031;-88
2024/03/10 20:20:28;;;;;;;0.20;0.20;;;;;;;14.07;100.00;75333.84;4959843;29;20044;-87
2024/03/10 20:24:11;;;;;;;0.20;0.20;;;;;;;13.70;100.00;75283.97;4964819;28;20087;-88
2024/03/10 20:29:38;;;;;;;0.20;0.20;;;;;;;13.75;100.00;75292.75;5495399;23;20088;-87
2024/03/10 20:32:42;;;;;;;0.20;0.20;;;;;;;13.93;100.00;75317.06;4961819;29;20039;-88
2024/03/10 20:35:33;;;;;;;;;;;;;;;13.90;100.00;75310.69;4995821;26;20066;-88
2024/03/10 20:38:48;;;;;;;0.20;0.20;;;;;;;13.87;100.00;75307.09;4994500;28;19941;-88
2024/03/10 20:41:37;;;;;;;0.20;0.20;;;;;;;13.84;100.00;75298.53;4996692;28;20022;-86
2024/03/10 20:44:35;;;;;;;0.20;0.20;;;;;;;13.78;100.00;75293.53;4963737;28;20046;-87
2024/03/10 20:47:37;;;;;;;0.20;0.20;;;;;;;13.79;100.00;75295.31;4997615;28;20034;-88
2024/03/10 20:50:54;;;;;;;0.20;0.20;;;;;;;13.77;100.00;75292.94;5001053;28;20049;-87